createdAt,value
2019-04-25T00:01:26.890Z,98.50
2019-04-25T00:03:56.174Z,98.30
2019-04-25T00:06:25.946Z,98.70
2019-04-25T00:08:55.233Z,98.70
2019-04-25T00:11:24.905Z,98.60
2019-04-25T00:13:54.297Z,98.60
2019-04-25T00:16:25.870Z,98.50
2019-04-25T00:18:55.135Z,98.80
2019-04-25T00:21:43.355Z,98.70
2019-04-25T00:24:31.815Z,98.90
2019-04-25T00:27:02.192Z,98.90
2019-04-25T00:29:31.970Z,98.80
2019-04-25T00:32:01.746Z,98.90
2019-04-25T00:34:31.658Z,98.90
2019-04-25T00:37:02.579Z,99.10
2019-04-25T00:39:32.088Z,98.90
2019-04-25T00:42:02.350Z,98.90
2019-04-25T00:44:32.096Z,98.70
2019-04-25T00:47:02.470Z,98.60
2019-04-25T00:49:32.300Z,98.80
2019-04-25T00:52:02.086Z,99.00
2019-04-25T00:54:31.557Z,99.00
2019-04-25T00:57:02.160Z,99.10
2019-04-25T00:59:49.282Z,99.00
2019-04-25T01:02:33.113Z,99.00
2019-04-25T01:05:02.626Z,99.20
2019-04-25T01:07:32.374Z,99.20
2019-04-25T01:10:02.888Z,99.20
2019-04-25T01:12:32.232Z,99.10
2019-04-25T01:15:01.765Z,99.10
2019-04-25T01:17:31.645Z,99.20
2019-04-25T01:20:00.916Z,99.30
2019-04-25T01:22:30.182Z,99.20
2019-04-25T01:24:59.461Z,99.30
2019-04-25T01:27:28.754Z,99.10
2019-04-25T01:29:58.018Z,99.00
2019-04-25T01:32:35.369Z,99.40
2019-04-25T01:35:21.107Z,99.20
2019-04-25T01:38:13.907Z,99.00
2019-04-25T01:40:57.342Z,99.20
2019-04-25T01:43:59.622Z,99.20
2019-04-25T01:46:29.361Z,99.10
2019-04-25T01:48:58.729Z,99.20
2019-04-25T01:51:28.206Z,99.10
2019-04-25T01:53:57.473Z,99.20
2019-04-25T01:56:26.758Z,99.10
2019-04-25T01:58:56.030Z,99.20
2019-04-25T02:01:25.281Z,99.30
2019-04-25T02:03:55.471Z,99.10
2019-04-25T02:06:24.947Z,99.00
2019-04-25T02:08:55.223Z,99.20
2019-04-25T02:11:40.814Z,99.10
2019-04-25T02:14:10.449Z,99.00
2019-04-25T02:16:39.750Z,99.10
2019-04-25T02:19:09.065Z,98.90
2019-04-25T02:21:38.430Z,99.10
2019-04-25T02:24:07.824Z,99.00
2019-04-25T02:26:37.073Z,99.20
2019-04-25T02:29:06.426Z,99.00
2019-04-25T02:31:35.697Z,99.40
2019-04-25T02:34:08.378Z,98.90
2019-04-25T02:36:35.976Z,99.30
2019-04-25T02:39:10.838Z,99.30
2019-04-25T02:41:40.109Z,99.40
2019-04-25T02:44:10.219Z,99.60
2019-04-25T02:47:00.571Z,99.40
2019-04-25T02:49:40.058Z,99.70
2019-04-25T02:52:18.088Z,99.70
2019-04-25T02:54:47.710Z,99.50
2019-04-25T02:57:17.003Z,99.80
2019-04-25T02:59:46.315Z,99.80
2019-04-25T03:02:15.985Z,99.80
2019-04-25T03:04:45.411Z,99.70
2019-04-25T03:07:17.506Z,99.80
2019-04-25T03:09:45.793Z,99.90
2019-04-25T03:12:29.623Z,99.70
2019-04-25T03:14:46.254Z,99.90
2019-04-25T03:17:15.545Z,99.90
2019-04-25T03:20:16.073Z,99.90
2019-04-25T03:22:45.339Z,99.90
2019-04-25T03:25:17.490Z,99.90
2019-04-25T03:27:45.966Z,99.90
2019-04-25T03:30:17.926Z,99.90
2019-04-25T03:32:46.964Z,99.90
2019-04-25T03:35:16.214Z,99.90
2019-04-25T03:37:45.549Z,99.90
2019-04-25T03:40:14.966Z,99.90
2019-04-25T03:42:44.229Z,99.90
2019-04-25T03:45:14.799Z,99.90
2019-04-25T03:47:44.209Z,99.90
2019-04-25T03:50:13.951Z,99.90
2019-04-25T03:52:43.656Z,99.90
2019-04-25T03:55:14.411Z,99.90
2019-04-25T03:57:44.341Z,99.90
2019-04-25T04:00:14.662Z,99.90
2019-04-25T04:02:44.437Z,99.90
2019-04-25T04:05:14.907Z,99.90
2019-04-25T04:07:44.422Z,99.90
2019-04-25T04:10:15.142Z,99.90
2019-04-25T04:12:44.881Z,99.90
2019-04-25T04:15:15.849Z,99.80
2019-04-25T04:18:05.945Z,99.90
2019-04-25T04:20:53.990Z,99.70
2019-04-25T04:23:33.206Z,99.60
2019-04-25T04:26:03.323Z,99.60
2019-04-25T04:28:33.716Z,99.40
2019-04-25T04:31:03.701Z,99.40
2019-04-25T04:33:34.609Z,99.40
2019-04-25T04:36:04.034Z,99.20
2019-04-25T04:38:34.209Z,99.20
2019-04-25T04:41:04.025Z,98.90
2019-04-25T04:43:34.227Z,99.00
2019-04-25T04:46:04.030Z,98.90
2019-04-25T04:48:34.205Z,98.70
2019-04-25T04:51:03.611Z,98.50
2019-04-25T04:53:35.616Z,98.40
2019-04-25T04:56:04.271Z,97.80
2019-04-25T04:58:34.302Z,98.00
2019-04-25T05:01:10.230Z,97.60
2019-04-25T05:03:56.107Z,97.50
2019-04-25T05:06:31.387Z,97.10
2019-04-25T05:09:08.901Z,97.10
2019-04-25T05:11:38.281Z,96.80
2019-04-25T05:14:07.635Z,96.70
2019-04-25T05:16:36.961Z,96.70
2019-04-25T05:19:06.241Z,96.60
2019-04-25T05:21:35.549Z,96.50
2019-04-25T05:24:04.967Z,96.20
2019-04-25T05:26:34.244Z,96.20
2019-04-25T05:29:03.712Z,96.00
2019-04-25T05:31:48.577Z,95.80
2019-04-25T05:34:18.292Z,95.60
2019-04-25T05:36:47.782Z,95.30
2019-04-25T05:39:18.051Z,95.20
2019-04-25T05:42:07.730Z,95.10
2019-04-25T05:44:37.192Z,95.20
2019-04-25T05:47:06.502Z,95.20
2019-04-25T05:49:35.817Z,95.00
2019-04-25T05:52:05.105Z,94.90
2019-04-25T05:54:34.575Z,94.70
2019-04-25T05:57:04.007Z,94.40
2019-04-25T05:59:33.815Z,94.40
2019-04-25T06:02:03.906Z,94.20
2019-04-25T06:04:33.677Z,94.20
2019-04-25T06:07:03.134Z,93.70
2019-04-25T06:09:54.608Z,94.00
2019-04-25T06:12:45.801Z,93.50
2019-04-25T06:15:15.418Z,93.40
2019-04-25T06:18:19.762Z,93.00
2019-04-25T06:20:50.002Z,92.60
2019-04-25T06:23:39.461Z,92.40
2019-04-25T06:26:22.834Z,92.20
2019-04-25T06:28:53.606Z,91.90
2019-04-25T06:31:21.405Z,91.80
2019-04-25T06:34:14.153Z,91.90
2019-04-25T06:37:10.170Z,91.60
2019-04-25T06:39:47.698Z,91.80
2019-04-25T06:42:21.145Z,91.70
2019-04-25T06:45:16.149Z,91.20
2019-04-25T06:47:59.383Z,91.00
2019-04-25T06:50:29.053Z,91.20
2019-04-25T06:52:58.565Z,90.90
2019-04-25T06:55:30.159Z,90.90
2019-04-25T06:58:09.192Z,90.50
2019-04-25T07:00:40.555Z,90.10
2019-04-25T07:03:07.121Z,90.20
2019-04-25T07:05:40.551Z,90.00
2019-04-25T07:08:10.260Z,90.10
2019-04-25T07:10:41.085Z,90.10
2019-04-25T07:13:19.069Z,90.00
2019-04-25T07:15:56.621Z,90.30
2019-04-25T07:18:30.516Z,90.20
2019-04-25T07:20:57.239Z,90.10
2019-04-25T07:23:26.530Z,90.00
2019-04-25T07:26:21.238Z,90.00
2019-04-25T07:29:17.714Z,90.10
2019-04-25T07:32:14.463Z,89.80
2019-04-25T07:34:43.822Z,88.60
2019-04-25T07:37:13.383Z,88.60
2019-04-25T07:39:44.182Z,89.50
2019-04-25T07:42:14.072Z,89.20
2019-04-25T07:44:52.151Z,88.50
2019-04-25T07:47:16.056Z,88.40
2019-04-25T07:49:45.429Z,88.40
2019-04-25T07:52:14.718Z,88.00
2019-04-25T07:54:44.079Z,86.60
2019-04-25T07:57:14.254Z,86.30
2019-04-25T07:59:43.699Z,85.50
2019-04-25T08:02:16.437Z,85.20
2019-04-25T08:04:45.701Z,84.50
2019-04-25T08:07:31.617Z,84.10
2019-04-25T08:10:04.093Z,83.00
2019-04-25T08:12:37.578Z,82.80
2019-04-25T08:15:15.450Z,82.50
2019-04-25T08:18:04.061Z,80.40
2019-04-25T08:20:34.747Z,73.20
2019-04-25T08:23:05.388Z,58.10
2019-04-25T08:25:39.197Z,50.30
2019-04-25T08:28:07.481Z,45.50
2019-04-25T08:30:38.030Z,42.50
2019-04-25T08:33:07.673Z,40.70
2019-04-25T08:35:38.088Z,37.90
2019-04-25T08:38:07.591Z,34.30
2019-04-25T08:40:40.405Z,32.70
2019-04-25T08:43:11.050Z,31.30
2019-04-25T08:45:40.458Z,31.80
2019-04-25T08:48:09.836Z,34.30
2019-04-25T08:50:45.497Z,33.20
2019-04-25T08:53:20.620Z,31.90
2019-04-25T08:56:04.909Z,29.80
2019-04-25T08:59:05.513Z,28.90
2019-04-25T09:01:45.135Z,27.40
2019-04-25T09:04:25.526Z,26.50
2019-04-25T09:06:54.983Z,25.20
2019-04-25T09:09:24.309Z,24.40
2019-04-25T09:11:55.874Z,24.00
2019-04-25T09:14:27.499Z,24.30
2019-04-25T09:17:00.922Z,24.70
2019-04-25T09:19:30.245Z,23.00
2019-04-25T09:21:59.881Z,23.10
2019-04-25T09:24:29.171Z,22.40
2019-04-25T09:27:03.766Z,23.10
2019-04-25T09:29:35.398Z,22.60
2019-04-25T09:32:06.379Z,21.90
2019-04-25T09:34:36.221Z,23.00
2019-04-25T09:37:06.991Z,22.90
2019-04-25T09:39:47.590Z,22.90
2019-04-25T09:42:16.906Z,24.10
2019-04-25T09:45:15.203Z,23.60
2019-04-25T09:47:44.825Z,22.80
2019-04-25T09:50:26.677Z,22.30
2019-04-25T09:52:59.808Z,22.40
2019-04-25T09:55:41.740Z,22.50
2019-04-25T09:58:25.361Z,21.80
2019-04-25T10:01:03.834Z,21.20
2019-04-25T10:03:47.424Z,20.80
2019-04-25T10:06:21.389Z,20.80
2019-04-25T10:09:02.382Z,20.50
2019-04-25T10:11:59.703Z,21.50
2019-04-25T10:15:18.962Z,20.80
2019-04-25T10:18:14.114Z,21.30
2019-04-25T10:20:55.131Z,20.90
2019-04-25T10:23:29.290Z,21.50
2019-04-25T10:26:24.211Z,23.60
2019-04-25T10:28:52.503Z,25.10
2019-04-25T10:31:23.741Z,28.10
2019-04-25T10:33:59.872Z,27.70
2019-04-25T10:36:31.403Z,27.30
2019-04-25T10:39:10.315Z,27.70
2019-04-25T10:41:41.534Z,29.30
2019-04-25T10:47:10.459Z,32.10
2019-04-25T10:49:40.643Z,34.20
2019-04-25T10:52:11.470Z,35.00
2019-04-25T10:55:04.195Z,35.60
2019-04-25T10:58:22.518Z,36.60
2019-04-25T11:00:47.200Z,38.20
2019-04-25T11:03:34.835Z,38.70
2019-04-25T11:06:07.574Z,39.00
2019-04-25T11:08:41.941Z,39.30
2019-04-25T11:11:54.962Z,39.80
2019-04-25T11:30:46.519Z,42.20
2019-04-25T11:33:44.003Z,42.30
2019-04-25T11:36:11.032Z,42.60
2019-04-25T11:41:26.838Z,42.10
2019-04-25T11:42:37.715Z,44.40
2019-04-25T11:45:09.509Z,44.70
2019-04-25T11:48:23.882Z,43.90
2019-04-25T11:50:55.856Z,42.90
2019-04-25T11:54:30.281Z,44.40
2019-04-25T11:57:34.852Z,44.80
2019-04-25T12:00:07.391Z,44.80
2019-04-25T12:07:11.898Z,44.30
2019-04-25T12:09:42.883Z,47.00
2019-04-25T12:12:14.668Z,45.70
2019-04-25T12:14:55.289Z,44.30
2019-04-25T12:17:35.397Z,46.80
2019-04-25T12:20:25.659Z,45.70
2019-04-25T12:26:24.248Z,48.40
2019-04-25T12:29:04.387Z,45.60
2019-04-25T12:35:06.646Z,45.50
2019-04-25T12:37:36.008Z,45.60
2019-04-25T12:40:08.263Z,44.90
2019-04-25T12:42:39.059Z,44.00
2019-04-25T12:45:30.416Z,44.90
2019-04-25T12:48:23.443Z,45.30
2019-04-25T12:50:56.735Z,44.30
2019-04-25T12:53:26.020Z,44.00
2019-04-25T12:55:56.126Z,44.50
2019-04-25T12:58:25.621Z,44.20
2019-04-25T13:01:08.188Z,44.60
2019-04-25T13:03:45.091Z,44.20
2019-04-25T13:06:17.676Z,44.10
2019-04-25T13:08:51.206Z,45.10
2019-04-25T13:11:23.971Z,44.10
2019-04-25T13:13:58.931Z,43.70
2019-04-25T13:16:38.907Z,43.50
2019-04-25T13:19:19.794Z,43.60
2019-04-25T13:21:43.371Z,43.80
2019-04-25T13:24:12.913Z,43.00
2019-04-25T13:26:57.016Z,43.00
2019-04-25T13:29:45.090Z,43.10
2019-04-25T13:32:42.673Z,43.10
2019-04-25T13:35:20.769Z,42.80
2019-04-25T13:37:50.149Z,42.50
2019-04-25T13:40:21.653Z,42.50
2019-04-25T13:42:53.098Z,42.50
2019-04-25T13:45:26.581Z,42.50
2019-04-25T13:48:03.410Z,42.50
2019-04-25T13:50:40.916Z,42.70
2019-04-25T13:53:10.182Z,42.60
2019-04-25T13:55:44.338Z,42.40
2019-04-25T13:58:19.929Z,42.70
2019-04-25T14:00:52.028Z,42.80
2019-04-25T14:03:27.344Z,43.20
2019-04-25T14:05:58.258Z,43.20
2019-04-25T14:08:29.532Z,43.30
2019-04-25T14:11:01.124Z,43.10
2019-04-25T14:13:33.670Z,43.10
2019-04-25T14:16:43.363Z,43.00
2019-04-25T14:19:33.546Z,42.90
2019-04-25T14:22:04.343Z,42.80
2019-04-25T14:24:35.670Z,43.10
2019-04-25T14:27:05.195Z,43.10
2019-04-25T14:29:34.794Z,43.10
2019-04-25T14:32:06.389Z,43.40
2019-04-25T14:34:35.771Z,43.50
2019-04-25T14:37:05.385Z,43.90
2019-04-25T14:39:34.667Z,44.20
2019-04-25T14:42:03.953Z,43.90
2019-04-25T14:44:34.527Z,44.00
2019-04-25T14:47:06.669Z,43.90
2019-04-25T14:49:43.110Z,43.40
2019-04-25T14:52:13.953Z,43.40
2019-04-25T14:55:01.103Z,43.60
2019-04-25T14:57:31.887Z,43.70
2019-04-25T15:00:04.530Z,43.80
2019-04-25T15:02:34.207Z,43.80
2019-04-25T15:05:03.685Z,43.60
2019-04-25T15:07:32.955Z,43.70
2019-04-25T15:10:04.054Z,43.90
2019-04-25T15:12:33.882Z,43.80
2019-04-25T15:15:03.358Z,44.00
2019-04-25T15:17:43.935Z,44.20
2019-04-25T15:20:03.753Z,44.00
2019-04-25T15:22:33.110Z,44.10
2019-04-25T15:25:02.373Z,44.20
2019-04-25T15:27:31.631Z,44.40
2019-04-25T15:30:01.112Z,44.30
2019-04-25T15:32:33.165Z,44.60
2019-04-25T15:35:02.744Z,44.60
2019-04-25T15:37:37.342Z,44.90
2019-04-25T15:40:24.099Z,45.00
2019-04-25T15:43:31.458Z,45.00
2019-04-25T15:46:06.933Z,44.90
2019-04-25T15:48:36.255Z,45.00
2019-04-25T15:51:05.510Z,45.20
2019-04-25T15:53:35.130Z,45.40
2019-04-25T15:56:04.392Z,45.60
2019-04-25T15:58:33.647Z,45.70
2019-04-25T16:01:04.024Z,45.80
2019-04-25T16:03:33.289Z,45.70
2019-04-25T16:06:02.765Z,45.90
2019-04-25T16:08:32.960Z,45.90
2019-04-25T16:11:02.438Z,46.00
2019-04-25T16:13:32.289Z,46.20
2019-04-25T16:16:01.723Z,46.50
2019-04-25T16:18:30.957Z,46.50
2019-04-25T16:21:00.313Z,46.50
2019-04-25T16:23:30.258Z,46.40
2019-04-25T16:25:59.630Z,46.80
2019-04-25T16:28:28.931Z,46.80
2019-04-25T16:30:58.282Z,47.10
2019-04-25T16:33:28.987Z,46.90
2019-04-25T16:35:58.482Z,47.20
2019-04-25T16:38:29.692Z,47.30
2019-04-25T16:40:59.110Z,47.40
2019-04-25T16:43:30.188Z,47.30
2019-04-25T16:45:59.446Z,47.60
2019-04-25T16:48:28.960Z,47.40
2019-04-25T16:50:59.175Z,47.80
2019-04-25T16:53:28.551Z,47.80
2019-04-25T16:55:57.791Z,48.10
2019-04-25T16:58:27.041Z,48.20
2019-04-25T17:01:06.918Z,48.30
2019-04-25T17:03:37.394Z,48.80
2019-04-25T17:06:07.253Z,48.70
2019-04-25T17:08:37.667Z,49.20
2019-04-25T17:11:07.986Z,49.10
2019-04-25T17:13:42.633Z,49.00
2019-04-25T17:16:29.582Z,49.30
2019-04-25T17:19:03.406Z,49.30
2019-04-25T17:21:32.701Z,49.50
2019-04-25T17:24:02.013Z,49.70
2019-04-25T17:26:32.664Z,50.10
2019-04-25T17:29:04.635Z,50.30
2019-04-25T17:31:45.231Z,50.20
2019-04-25T17:34:21.797Z,50.90
2019-04-25T17:37:18.834Z,51.00
2019-04-25T17:40:00.594Z,51.10
2019-04-25T17:42:29.858Z,51.40
2019-04-25T17:44:59.141Z,51.90
2019-04-25T17:47:28.502Z,51.80
2019-04-25T17:49:57.833Z,52.00
2019-04-25T17:52:27.117Z,52.30
2019-04-25T17:54:56.381Z,52.40
2019-04-25T17:57:25.639Z,52.80
2019-04-25T17:59:54.939Z,53.10
2019-04-25T18:02:24.191Z,53.00
2019-04-25T18:04:53.564Z,53.30
2019-04-25T18:07:22.936Z,53.60
2019-04-25T18:09:52.196Z,54.00
2019-04-25T18:12:21.558Z,54.00
2019-04-25T18:14:51.526Z,54.50
2019-04-25T18:17:20.993Z,55.00
2019-04-25T18:20:04.405Z,55.30
2019-04-25T18:22:51.281Z,55.90
2019-04-25T18:25:48.547Z,55.40
2019-04-25T18:28:21.134Z,56.10
2019-04-25T18:30:50.396Z,56.10
2019-04-25T18:33:31.598Z,56.80
2019-04-25T18:36:22.486Z,56.60
2019-04-25T18:39:00.992Z,57.50
2019-04-25T18:41:37.954Z,57.30
2019-04-25T18:44:07.429Z,58.60
2019-04-25T18:46:40.407Z,58.10
2019-04-25T18:49:09.934Z,58.00
2019-04-25T18:51:39.271Z,58.20
2019-04-25T18:54:31.546Z,58.60
2019-04-25T18:57:19.798Z,58.60
2019-04-25T19:00:20.359Z,58.70
2019-04-25T19:03:07.766Z,59.10
2019-04-25T19:05:55.978Z,59.60
2019-04-25T19:08:25.278Z,59.60
2019-04-25T19:10:54.724Z,60.00
2019-04-25T19:13:24.089Z,60.20
2019-04-25T19:15:53.442Z,60.10
2019-04-25T19:18:22.707Z,60.20
2019-04-25T19:20:52.400Z,60.90
2019-04-25T19:23:21.850Z,60.20
2019-04-25T19:25:52.115Z,60.40
2019-04-25T19:28:21.537Z,61.00
2019-04-25T19:30:51.379Z,60.60
2019-04-25T19:33:34.700Z,61.30
2019-04-25T19:35:53.353Z,61.40
2019-04-25T19:38:22.713Z,61.00
2019-04-25T19:41:07.510Z,61.60
2019-04-25T19:43:54.819Z,61.10
2019-04-25T19:46:38.125Z,61.40
2019-04-25T19:49:08.289Z,61.60
2019-04-25T19:51:37.640Z,61.40
2019-04-25T19:54:07.090Z,61.70
2019-04-25T19:56:36.455Z,61.40
2019-04-25T19:59:06.031Z,62.00
2019-04-25T20:01:35.338Z,63.40
2019-04-25T20:04:13.556Z,62.80
2019-04-25T20:07:02.188Z,63.30
2019-04-25T20:10:02.316Z,63.60
2019-04-25T20:12:35.982Z,64.10
2019-04-25T20:15:05.933Z,63.80
2019-04-25T20:17:35.210Z,64.00
2019-04-25T20:20:05.055Z,64.00
2019-04-25T20:22:34.358Z,64.90
2019-04-25T20:25:03.634Z,65.50
2019-04-25T20:27:32.902Z,65.70
2019-04-25T20:30:02.441Z,66.30
2019-04-25T20:32:31.821Z,66.80
2019-04-25T20:35:01.109Z,67.30
2019-04-25T20:37:30.390Z,67.60
2019-04-25T20:39:59.678Z,67.80
2019-04-25T20:42:29.019Z,68.70
2019-04-25T20:44:58.269Z,68.90
2019-04-25T20:47:27.541Z,68.60
2019-04-25T20:49:57.577Z,70.50
2019-04-25T20:52:27.273Z,70.10
2019-04-25T20:54:56.980Z,71.80
2019-04-25T20:57:28.702Z,71.40
2019-04-25T20:59:58.127Z,71.30
2019-04-25T21:02:27.425Z,72.50
2019-04-25T21:04:56.873Z,73.90
2019-04-25T21:07:26.289Z,73.30
2019-04-25T21:09:55.549Z,74.50
2019-04-25T21:12:24.813Z,76.00
2019-04-25T21:15:15.793Z,74.10
2019-04-25T21:18:04.410Z,76.00
2019-04-25T21:20:33.680Z,76.50
2019-04-25T21:23:03.029Z,76.60
2019-04-25T21:25:32.408Z,78.00
2019-04-25T21:28:01.681Z,78.40
2019-04-25T21:30:31.013Z,79.40
2019-04-25T21:33:00.321Z,78.30
2019-04-25T21:35:29.961Z,79.10
2019-04-25T21:37:59.635Z,78.60
2019-04-25T21:40:48.066Z,79.00
2019-04-25T21:43:22.305Z,80.90
2019-04-25T21:45:51.918Z,79.70
2019-04-25T21:48:22.124Z,80.00
2019-04-25T21:50:53.480Z,79.20
2019-04-25T21:53:22.815Z,79.50
2019-04-25T21:55:53.194Z,80.20
2019-04-25T21:58:23.533Z,80.10
2019-04-25T22:01:16.639Z,80.30
2019-04-25T22:03:45.966Z,79.50
2019-04-25T22:06:17.764Z,80.90
2019-04-25T22:08:46.677Z,81.50
2019-04-25T22:11:16.061Z,81.60
2019-04-25T22:13:45.694Z,81.70
2019-04-25T22:16:15.353Z,82.30
2019-04-25T22:18:45.062Z,81.40
2019-04-25T22:21:14.601Z,82.50
2019-04-25T22:23:44.327Z,81.90
2019-04-25T22:26:13.670Z,83.20
2019-04-25T22:28:43.198Z,84.40
2019-04-25T22:31:17.537Z,84.30
2019-04-25T22:34:24.282Z,84.20
2019-04-25T22:36:53.541Z,85.40
2019-04-25T22:39:22.872Z,84.80
2019-04-25T22:41:52.513Z,85.60
2019-04-25T22:44:22.581Z,84.40
2019-04-25T22:46:52.320Z,86.00
2019-04-25T22:49:21.587Z,87.00
2019-04-25T22:51:50.963Z,86.50
2019-04-25T22:54:20.701Z,86.30
2019-04-25T22:56:50.025Z,87.60
2019-04-25T22:59:19.583Z,87.40
2019-04-25T23:02:06.543Z,87.60
2019-04-25T23:05:04.566Z,87.70
2019-04-25T23:07:25.462Z,87.90
2019-04-25T23:09:55.129Z,88.50
2019-04-25T23:12:24.763Z,89.10
2019-04-25T23:14:54.009Z,89.40
2019-04-25T23:17:23.346Z,89.40
2019-04-25T23:19:52.943Z,90.10
2019-04-25T23:22:22.197Z,90.10
2019-04-25T23:25:06.066Z,90.10
2019-04-25T23:27:53.106Z,90.00
2019-04-25T23:30:25.585Z,90.30
2019-04-25T23:32:54.847Z,90.50
2019-04-25T23:35:30.383Z,90.60
2019-04-25T23:37:55.167Z,90.60
2019-04-25T23:40:24.521Z,90.40
2019-04-25T23:42:54.057Z,90.60
2019-04-25T23:45:23.345Z,90.50
2019-04-25T23:47:52.613Z,90.80
2019-04-25T23:50:22.251Z,90.30
2019-04-25T23:52:51.557Z,90.50
2019-04-25T23:55:20.993Z,90.40
2019-04-25T23:57:50.249Z,90.60
